Time;durP1;ratioP1;P1;durP2;ratioP2;P2;SDS_P1;SDS_P2;PMS_P1;PMS_P2;Temp;Humidity;BMP_temperature;BMP_pressure;BME280_temperature;BME280_humidity;BME280_pressure;Samples;Min_cycle;Max_cycle;Signal;HPM_P1;HPM_P2
2022/12/20 00:00:53;;;;;;;;;;;9.80;99.90;;;;;;5109277;28;19938;-40
2022/12/20 00:03:19;;;;;;;;;;;9.90;99.90;;;;;;5114607;28;19919;-41
2022/12/20 00:05:44;;;;;;;;;;;9.90;99.90;;;;;;5113924;27;19934;-41
2022/12/20 00:08:10;;;;;;;;;;;9.80;99.90;;;;;;5114490;28;19908;-41
2022/12/20 00:10:44;;;;;;;;;;;9.90;99.90;;;;;;5114253;28;19911;-41
2022/12/20 00:13:10;;;;;;;;;;;9.90;99.90;;;;;;5113457;28;20137;-40
2022/12/20 00:15:36;;;;;;;;;;;9.80;99.90;;;;;;5114520;28;20460;-40
2022/12/20 00:18:01;;;;;;;;;;;9.80;99.90;;;;;;5114115;28;19931;-41
2022/12/20 00:20:27;;;;;;;;;;;9.80;99.90;;;;;;5112984;28;19915;-41
2022/12/20 00:22:53;;;;;;;;;;;9.90;99.90;;;;;;5113481;28;19980;-41
2022/12/20 00:25:19;;;;;;;;;;;9.90;99.90;;;;;;5114063;28;19914;-41
2022/12/20 00:27:45;;;;;;;;;;;9.90;99.90;;;;;;5100947;28;19966;-41
2022/12/20 00:30:11;;;;;;;;;;;9.80;99.90;;;;;;5093209;28;19924;-42
2022/12/20 00:32:36;;;;;;;;;;;9.90;99.90;;;;;;5098227;28;19922;-42
2022/12/20 00:35:02;;;;;;;;;;;9.90;99.90;;;;;;5092529;28;19908;-40
2022/12/20 00:37:28;;;;;;;;;;;9.90;99.90;;;;;;5093373;28;19931;-41
2022/12/20 00:39:53;;;;;;;;;;;9.90;99.90;;;;;;5093533;28;19915;-43
2022/12/20 00:42:18;;;;;;;;;;;9.90;99.90;;;;;;5108014;28;19916;-42
2022/12/20 00:44:44;;;;;;;;;;;10.00;99.90;;;;;;5113609;28;20335;-44
2022/12/20 00:47:09;;;;;;;;;;;10.00;99.90;;;;;;5104056;28;19912;-41
2022/12/20 00:49:35;;;;;;;;;;;10.00;99.90;;;;;;5092788;28;19908;-41
2022/12/20 00:52:00;;;;;;;;;;;10.00;99.90;;;;;;5093111;28;20381;-42
2022/12/20 00:54:26;;;;;;;;;;;10.00;99.90;;;;;;5092864;28;20017;-41
2022/12/20 00:56:51;;;;;;;;;;;10.00;99.90;;;;;;5092431;28;19915;-41
2022/12/20 00:59:17;;;;;;;;;;;10.00;99.90;;;;;;5111003;28;19919;-44
2022/12/20 01:01:42;;;;;;;;;;;10.10;99.90;;;;;;5095418;28;20016;-41
2022/12/20 01:04:08;;;;;;;;;;;10.10;99.90;;;;;;5092977;28;20373;-42
2022/12/20 01:06:33;;;;;;;;;;;10.00;99.90;;;;;;5099255;28;20006;-40
2022/12/20 01:08:59;;;;;;;;;;;10.00;99.90;;;;;;5112630;28;20660;-41
2022/12/20 01:11:29;;;;;;;;;;;10.00;99.90;;;;;;5113228;28;19912;-40
2022/12/20 01:13:55;;;;;;;;;;;9.90;99.90;;;;;;5113216;28;19914;-41
2022/12/20 01:16:26;;;;;;;;;;;9.90;99.90;;;;;;5112606;28;20346;-42
2022/12/20 01:18:52;;;;;;;;;;;9.90;99.90;;;;;;5112883;28;20006;-42
2022/12/20 01:21:18;;;;;;;;;;;9.90;99.90;;;;;;5113038;28;20006;-41
2022/12/20 01:23:44;;;;;;;;;;;9.90;99.90;;;;;;5112231;28;19912;-41
2022/12/20 01:26:11;;;;;;;;;;;9.80;99.90;;;;;;5113238;28;20065;-40
2022/12/20 01:28:38;;;;;;;;;;;9.80;99.90;;;;;;5113021;28;19912;-42
2022/12/20 01:31:11;;;;;;;;;;;9.80;99.90;;;;;;5107078;28;19920;-41
2022/12/20 01:33:37;;;;;;;;;;;9.80;99.90;;;;;;5092555;28;19965;-42
2022/12/20 01:36:07;;;;;;;;;;;9.80;99.90;;;;;;5094221;28;19908;-41
2022/12/20 01:38:33;;;;;;;;;;;9.70;99.90;;;;;;5112110;28;19907;-40
2022/12/20 01:40:59;;;;;;;;;;;9.70;99.90;;;;;;5113040;28;20006;-41
2022/12/20 01:43:25;;;;;;;;;;;9.70;99.90;;;;;;5113196;28;20255;-40
2022/12/20 01:45:51;;;;;;;;;;;9.60;99.90;;;;;;5108424;28;19938;-41
2022/12/20 01:48:20;;;;;;;;;;;9.60;99.90;;;;;;5108625;28;20317;-41
2022/12/20 01:50:47;;;;;;;;;;;9.60;99.90;;;;;;5112505;28;19907;-40
2022/12/20 01:53:13;;;;;;;;;;;9.60;99.90;;;;;;5110491;28;19934;-43
2022/12/20 01:55:39;;;;;;;;;;;9.60;99.90;;;;;;5112496;28;19965;-42
2022/12/20 01:58:05;;;;;;;;;;;9.50;99.90;;;;;;5112204;28;20329;-41
2022/12/20 02:00:31;;;;;;;;;;;9.50;99.90;;;;;;5113025;28;19954;-43
2022/12/20 02:03:02;;;;;;;;;;;9.50;99.90;;;;;;5111992;28;19974;-41
2022/12/20 02:05:32;;;;;;;;;;;9.50;99.90;;;;;;5112043;28;19912;-40
2022/12/20 02:07:57;;;;;;;;;;;9.60;99.90;;;;;;5113085;28;19915;-40
2022/12/20 02:10:26;;;;;;;;;;;9.60;99.90;;;;;;5110819;28;19916;-41
2022/12/20 02:12:57;;;;;;;;;;;9.60;99.90;;;;;;5111614;28;20355;-41
2022/12/20 02:15:45;;;;;;;;;;;9.60;99.90;;;;;;5112866;28;19914;-40
2022/12/20 02:18:30;;;;;;;;;;;9.60;99.90;;;;;;5104221;28;20358;-41
2022/12/20 02:21:02;;;;;;;;;;;9.70;99.90;;;;;;5111742;28;20251;-41
2022/12/20 02:23:44;;;;;;;;;;;9.70;99.90;;;;;;5106758;28;19919;-41
2022/12/20 02:26:29;;;;;;;;;;;9.60;99.90;;;;;;5111821;28;19984;-42
2022/12/20 02:28:54;;;;;;;;;;;9.70;99.90;;;;;;5112549;28;19908;-41
2022/12/20 02:31:23;;;;;;;;;;;9.70;99.90;;;;;;5112434;28;19927;-42
2022/12/20 02:33:51;;;;;;;;;;;9.80;99.90;;;;;;5111913;28;19931;-41
2022/12/20 02:36:17;;;;;;;;;;;9.80;99.90;;;;;;5112565;28;19915;-41
2022/12/20 02:38:43;;;;;;;;;;;9.80;99.90;;;;;;5111816;28;19912;-42
2022/12/20 02:41:08;;;;;;;;;;;9.80;99.90;;;;;;5111581;28;20020;-42
2022/12/20 02:46:34;;;;;;;;;;;9.90;99.90;;;;;;5091601;28;19908;-42
2022/12/20 02:49:02;;;;;;;;;;;9.90;99.90;;;;;;5094826;28;19908;-41
2022/12/20 02:51:28;;;;;;;;;;;9.90;99.90;;;;;;5114323;28;19981;-41
2022/12/20 02:53:54;;;;;;;;;;;9.90;99.90;;;;;;5114331;28;19965;-41
2022/12/20 02:56:32;;;;;;;;;;;9.90;99.90;;;;;;5115287;28;19911;-41
2022/12/20 02:59:00;;;;;;;;;;;9.90;99.90;;;;;;5115958;28;19915;-41
2022/12/20 03:01:28;;;;;;;;;;;9.90;99.90;;;;;;5115150;28;19916;-41
2022/12/20 03:03:55;;;;;;;;;;;9.90;99.90;;;;;;5103123;28;19912;-40
2022/12/20 03:06:21;;;;;;;;;;;9.80;99.90;;;;;;5103362;28;19908;-41
2022/12/20 03:08:46;;;;;;;;;;;9.80;99.90;;;;;;5113498;28;20286;-42
2022/12/20 03:11:12;;;;;;;;;;;9.90;99.90;;;;;;5115511;28;19961;-41
2022/12/20 03:13:38;;;;;;;;;;;9.90;99.90;;;;;;5101613;28;20437;-39
2022/12/20 03:16:04;;;;;;;;;;;9.90;99.90;;;;;;5094282;28;19940;-41
2022/12/20 03:18:29;;;;;;;;;;;9.90;99.90;;;;;;5095150;28;19912;-40
2022/12/20 03:20:54;;;;;;;;;;;9.90;99.90;;;;;;5095018;28;19912;-40
2022/12/20 03:23:20;;;;;;;;;;;9.80;99.90;;;;;;5093820;28;19908;-42
2022/12/20 03:25:46;;;;;;;;;;;9.80;99.90;;;;;;5095120;28;20336;-41
2022/12/20 03:28:11;;;;;;;;;;;9.90;99.90;;;;;;5094918;28;19908;-40
2022/12/20 03:30:37;;;;;;;;;;;9.80;99.90;;;;;;5093758;28;19920;-41
2022/12/20 03:33:02;;;;;;;;;;;9.80;99.90;;;;;;5094606;28;19909;-42
2022/12/20 03:35:28;;;;;;;;;;;9.80;99.90;;;;;;5094855;28;19908;-41
2022/12/20 03:37:55;;;;;;;;;;;9.80;99.90;;;;;;5094079;28;19912;-42
2022/12/20 03:40:21;;;;;;;;;;;9.80;99.90;;;;;;5095479;28;19920;-44
2022/12/20 03:42:46;;;;;;;;;;;9.80;99.90;;;;;;5113331;28;19920;-40
2022/12/20 03:45:12;;;;;;;;;;;9.80;99.90;;;;;;5114129;28;19914;-41
2022/12/20 03:47:37;;;;;;;;;;;9.80;99.90;;;;;;5114892;28;19974;-41
2022/12/20 03:50:04;;;;;;;;;;;9.80;99.90;;;;;;5114569;28;19915;-42
2022/12/20 03:52:29;;;;;;;;;;;9.80;99.90;;;;;;5114196;28;19911;-40
2022/12/20 03:54:55;;;;;;;;;;;9.80;99.90;;;;;;5108128;28;19912;-40
2022/12/20 03:57:20;;;;;;;;;;;9.70;99.90;;;;;;5106817;28;19944;-42
2022/12/20 03:59:46;;;;;;;;;;;9.80;99.90;;;;;;5113763;28;19908;-42
2022/12/20 04:02:11;;;;;;;;;;;9.80;99.90;;;;;;5114181;28;20287;-41
2022/12/20 04:04:37;;;;;;;;;;;9.70;99.90;;;;;;5114011;28;19916;-42
2022/12/20 04:07:02;;;;;;;;;;;9.70;99.90;;;;;;5114242;28;19915;-41
2022/12/20 04:09:28;;;;;;;;;;;9.80;99.90;;;;;;5102513;28;20446;-41
2022/12/20 04:11:53;;;;;;;;;;;9.80;99.90;;;;;;5092046;28;19918;-42
2022/12/20 04:14:18;;;;;;;;;;;9.80;99.90;;;;;;5093932;28;20038;-43
2022/12/20 04:16:44;;;;;;;;;;;9.80;99.90;;;;;;5094529;28;19928;-41
2022/12/20 04:19:10;;;;;;;;;;;9.80;99.90;;;;;;5093153;28;19915;-40
2022/12/20 04:21:36;;;;;;;;;;;9.80;99.90;;;;;;5093843;28;20306;-41
2022/12/20 04:24:02;;;;;;;;;;;9.80;99.90;;;;;;5093662;28;19908;-40
2022/12/20 04:26:28;;;;;;;;;;;9.80;99.90;;;;;;5092826;28;19908;-41
2022/12/20 04:28:53;;;;;;;;;;;9.80;99.90;;;;;;5094072;28;19914;-41
2022/12/20 04:31:19;;;;;;;;;;;9.80;99.90;;;;;;5093510;28;19927;-41
2022/12/20 04:33:45;;;;;;;;;;;9.80;99.90;;;;;;5092718;28;19915;-42
2022/12/20 04:36:10;;;;;;;;;;;9.80;99.90;;;;;;5093535;28;19908;-40
2022/12/20 04:38:36;;;;;;;;;;;9.80;99.90;;;;;;5094743;28;19927;-40
2022/12/20 04:41:01;;;;;;;;;;;9.80;99.90;;;;;;5092596;28;20396;-42
2022/12/20 04:43:27;;;;;;;;;;;9.80;99.90;;;;;;5093233;28;19912;-42
2022/12/20 04:45:55;;;;;;;;;;;9.80;99.90;;;;;;5093474;28;19908;-44
2022/12/20 04:48:21;;;;;;;;;;;9.70;99.90;;;;;;5092521;28;19909;-44
2022/12/20 04:50:47;;;;;;;;;;;9.70;99.90;;;;;;5095130;28;19967;-41
2022/12/20 04:55:57;;;;;;;;;;;9.70;99.90;;;;;;5093153;28;20273;-42
2022/12/20 04:58:22;;;;;;;;;;;9.70;99.90;;;;;;5112117;28;20366;-42
2022/12/20 05:00:48;;;;;;;;;;;9.70;99.90;;;;;;5111325;28;20263;-40
2022/12/20 05:03:13;;;;;;;;;;;9.70;99.90;;;;;;5111678;28;20438;-42
2022/12/20 05:05:39;;;;;;;;;;;9.70;99.90;;;;;;5111995;28;19908;-41
2022/12/20 05:08:04;;;;;;;;;;;9.70;99.90;;;;;;5110627;28;19953;-41
2022/12/20 05:10:30;;;;;;;;;;;9.80;99.90;;;;;;5110950;28;19926;-42
2022/12/20 05:12:55;;;;;;;;;;;9.80;99.90;;;;;;5111410;28;20014;-41
2022/12/20 05:15:21;;;;;;;;;;;9.80;99.90;;;;;;5110614;28;20270;-41
2022/12/20 05:17:46;;;;;;;;;;;9.80;99.90;;;;;;5111719;28;19915;-42
2022/12/20 05:20:12;;;;;;;;;;;9.90;99.90;;;;;;5111605;28;19915;-42
2022/12/20 05:28:06;;;;;;;;;;;10.00;99.90;;;;;;5111028;28;19995;-44
2022/12/20 05:30:32;;;;;;;;;;;10.00;99.90;;;;;;5110710;28;19959;-41
2022/12/20 05:32:57;;;;;;;;;;;10.00;99.90;;;;;;5111675;28;19927;-42
2022/12/20 05:35:23;;;;;;;;;;;10.10;99.90;;;;;;5111718;28;20454;-41
2022/12/20 05:37:48;;;;;;;;;;;10.10;99.90;;;;;;5110441;28;19912;-43
2022/12/20 05:40:15;;;;;;;;;;;10.20;99.90;;;;;;5110493;28;19922;-41
2022/12/20 05:42:40;;;;;;;;;;;10.20;99.90;;;;;;5112869;28;19916;-40
2022/12/20 05:45:06;;;;;;;;;;;10.20;99.90;;;;;;5111864;28;19911;-41
2022/12/20 05:47:32;;;;;;;;;;;10.30;99.90;;;;;;5113015;28;19908;-42
2022/12/20 05:49:59;;;;;;;;;;;10.30;99.90;;;;;;5112972;28;19918;-40
2022/12/20 05:52:24;;;;;;;;;;;10.30;99.90;;;;;;5104758;28;19912;-40
2022/12/20 05:54:50;;;;;;;;;;;10.40;99.90;;;;;;5098426;28;19919;-42
2022/12/20 05:57:15;;;;;;;;;;;10.40;99.90;;;;;;5091462;28;19912;-41
2022/12/20 05:59:41;;;;;;;;;;;10.40;99.90;;;;;;5092406;28;19908;-44
2022/12/20 06:02:06;;;;;;;;;;;10.40;99.90;;;;;;5092264;28;20287;-44
2022/12/20 06:04:32;;;;;;;;;;;10.40;99.90;;;;;;5091657;28;19912;-41
2022/12/20 06:06:58;;;;;;;;;;;10.40;99.90;;;;;;5092113;28;20367;-41
2022/12/20 06:09:24;;;;;;;;;;;10.40;99.90;;;;;;5102946;28;20267;-39
2022/12/20 06:11:49;;;;;;;;;;;10.40;99.90;;;;;;5095566;28;19915;-42
2022/12/20 06:14:15;;;;;;;;;;;10.30;99.90;;;;;;5092157;28;19916;-41
2022/12/20 06:16:40;;;;;;;;;;;10.30;99.90;;;;;;5092156;28;19912;-43
2022/12/20 06:19:06;;;;;;;;;;;10.40;99.90;;;;;;5102255;28;19912;-43
2022/12/20 06:21:31;;;;;;;;;;;10.40;99.90;;;;;;5116415;28;19916;-41
2022/12/20 06:23:57;;;;;;;;;;;10.40;99.90;;;;;;5116116;28;19908;-43
2022/12/20 06:26:22;;;;;;;;;;;10.50;99.90;;;;;;5115547;28;19908;-42
2022/12/20 06:28:51;;;;;;;;;;;10.50;99.90;;;;;;5116271;28;19960;-40
2022/12/20 06:31:17;;;;;;;;;;;10.50;99.90;;;;;;5116103;28;19919;-40
2022/12/20 06:33:42;;;;;;;;;;;10.50;99.90;;;;;;5114772;28;19953;-41
2022/12/20 06:36:08;;;;;;;;;;;10.50;99.90;;;;;;5112994;28;20416;-42
2022/12/20 06:38:33;;;;;;;;;;;10.60;99.90;;;;;;5114831;28;19918;-41
2022/12/20 06:40:59;;;;;;;;;;;10.50;99.90;;;;;;5109237;28;20361;-42
2022/12/20 06:43:24;;;;;;;;;;;10.60;99.90;;;;;;5115755;28;19951;-43
2022/12/20 06:45:50;;;;;;;;;;;10.60;99.90;;;;;;5116388;28;19914;-42
2022/12/20 06:48:15;;;;;;;;;;;10.60;99.90;;;;;;5110960;28;20369;-42
2022/12/20 06:50:41;;;;;;;;;;;10.50;99.90;;;;;;5114208;28;19912;-44
2022/12/20 06:53:07;;;;;;;;;;;10.50;99.90;;;;;;5110223;28;19917;-42
2022/12/20 06:55:33;;;;;;;;;;;10.50;99.90;;;;;;5094721;28;20393;-42
2022/12/20 06:57:58;;;;;;;;;;;10.40;99.90;;;;;;5095534;28;19936;-41
2022/12/20 07:00:24;;;;;;;;;;;10.40;99.90;;;;;;5095788;28;19965;-43
2022/12/20 07:02:49;;;;;;;;;;;10.40;99.90;;;;;;5107800;28;20010;-42
2022/12/20 07:05:15;;;;;;;;;;;10.40;99.90;;;;;;5107377;28;19954;-43
2022/12/20 07:07:40;;;;;;;;;;;10.40;99.90;;;;;;5094596;28;20314;-41
2022/12/20 07:10:06;;;;;;;;;;;10.30;99.90;;;;;;5101612;28;19960;-44
2022/12/20 07:12:32;;;;;;;;;;;10.30;99.90;;;;;;5115655;28;19907;-42
2022/12/20 07:14:58;;;;;;;;;;;10.30;99.90;;;;;;5114458;28;20386;-43
2022/12/20 07:17:23;;;;;;;;;;;10.30;99.90;;;;;;5115564;28;19912;-43
2022/12/20 07:19:49;;;;;;;;;;;10.30;99.90;;;;;;5115384;28;19914;-42
2022/12/20 07:22:15;;;;;;;;;;;10.30;99.90;;;;;;5108214;28;19927;-43
2022/12/20 07:24:40;;;;;;;;;;;10.20;99.90;;;;;;5093382;28;19944;-41
2022/12/20 07:27:06;;;;;;;;;;;10.30;99.90;;;;;;5093635;28;19916;-43
2022/12/20 07:29:32;;;;;;;;;;;10.20;99.90;;;;;;5093393;28;20374;-40
2022/12/20 07:31:58;;;;;;;;;;;10.20;99.90;;;;;;5093728;28;19970;-41
2022/12/20 07:34:23;;;;;;;;;;;10.20;99.90;;;;;;5094832;28;20000;-41
2022/12/20 07:36:49;;;;;;;;;;;10.20;99.90;;;;;;5093991;28;19947;-41
2022/12/20 07:39:15;;;;;;;;;;;10.20;99.90;;;;;;5094614;28;19909;-42
2022/12/20 07:41:40;;;;;;;;;;;10.20;99.90;;;;;;5098228;28;19920;-41
2022/12/20 07:44:06;;;;;;;;;;;10.10;99.90;;;;;;5099645;28;20074;-43
2022/12/20 07:46:32;;;;;;;;;;;10.10;99.90;;;;;;5100769;28;19912;-42
2022/12/20 07:48:57;;;;;;;;;;;10.20;99.90;;;;;;5110983;28;19916;-42
2022/12/20 07:51:25;;;;;;;;;;;10.20;99.90;;;;;;5113587;28;19908;-43
2022/12/20 07:53:58;;;;;;;;;;;10.20;99.90;;;;;;5114597;28;19907;-45
2022/12/20 07:56:25;;;;;;;;;;;10.20;99.90;;;;;;5114736;28;19914;-42
2022/12/20 07:58:52;;;;;;;;;;;10.20;99.90;;;;;;5113136;28;19922;-41
2022/12/20 08:01:18;;;;;;;;;;;10.20;99.90;;;;;;5109233;28;20002;-41
2022/12/20 08:03:50;;;;;;;;;;;10.20;99.90;;;;;;5100054;28;19919;-42
2022/12/20 08:06:16;;;;;;;;;;;10.20;99.90;;;;;;5106337;28;19971;-41
2022/12/20 08:08:43;;;;;;;;;;;10.20;99.90;;;;;;5104718;28;19911;-42
2022/12/20 08:11:09;;;;;;;;;;;10.20;99.90;;;;;;5112044;28;19914;-42
2022/12/20 08:13:35;;;;;;;;;;;10.20;99.90;;;;;;5106781;28;20251;-41
2022/12/20 08:16:00;;;;;;;;;;;10.20;99.90;;;;;;5094157;28;19908;-41
2022/12/20 08:18:26;;;;;;;;;;;10.20;99.90;;;;;;5093853;28;19915;-42
2022/12/20 08:20:51;;;;;;;;;;;10.30;99.90;;;;;;5101178;28;19994;-41
2022/12/20 08:23:18;;;;;;;;;;;10.40;99.90;;;;;;5093828;28;20361;-43
2022/12/20 08:25:44;;;;;;;;;;;10.40;99.90;;;;;;5100357;28;19912;-42
2022/12/20 08:28:09;;;;;;;;;;;10.40;99.90;;;;;;5094457;28;19912;-40
2022/12/20 08:30:35;;;;;;;;;;;10.50;99.90;;;;;;5093336;28;19942;-41
2022/12/20 08:33:00;;;;;;;;;;;10.50;99.90;;;;;;5092326;28;19908;-40
2022/12/20 08:35:26;;;;;;;;;;;10.50;99.90;;;;;;5093985;28;20522;-42
2022/12/20 08:37:52;;;;;;;;;;;10.50;99.90;;;;;;5095323;28;19909;-42
2022/12/20 08:40:18;;;;;;;;;;;10.50;99.90;;;;;;5093282;28;19912;-43
2022/12/20 08:42:43;;;;;;;;;;;10.50;99.90;;;;;;5093324;28;19970;-41
2022/12/20 08:45:09;;;;;;;;;;;10.50;99.90;;;;;;5094146;28;19908;-42
2022/12/20 08:47:35;;;;;;;;;;;10.50;99.90;;;;;;5094869;28;19977;-42
2022/12/20 08:50:00;;;;;;;;;;;10.50;99.90;;;;;;5113095;28;19991;-40
2022/12/20 08:52:27;;;;;;;;;;;10.60;99.90;;;;;;5093180;28;19908;-42
2022/12/20 08:54:53;;;;;;;;;;;10.50;99.90;;;;;;5092268;28;20367;-42
2022/12/20 08:57:18;;;;;;;;;;;10.50;99.90;;;;;;5093095;28;20173;-42
2022/12/20 08:59:44;;;;;;;;;;;10.60;99.90;;;;;;5098171;28;19912;-42
2022/12/20 09:02:09;;;;;;;;;;;10.50;99.90;;;;;;5092902;28;19967;-42
2022/12/20 09:04:35;;;;;;;;;;;10.50;99.90;;;;;;5093072;28;20362;-43
2022/12/20 09:07:01;;;;;;;;;;;10.50;99.90;;;;;;5103742;28;19908;-41
2022/12/20 09:09:26;;;;;;;;;;;10.50;99.90;;;;;;5105850;28;19918;-42
2022/12/20 09:11:52;;;;;;;;;;;10.60;99.90;;;;;;5093983;28;19908;-43
2022/12/20 09:14:17;;;;;;;;;;;10.50;99.90;;;;;;5093023;28;19951;-41
2022/12/20 09:16:43;;;;;;;;;;;10.50;99.90;;;;;;5107554;28;20430;-43
2022/12/20 09:19:10;;;;;;;;;;;10.50;99.90;;;;;;5107832;28;19962;-42
2022/12/20 09:21:36;;;;;;;;;;;10.60;99.90;;;;;;5097838;28;19920;-43
2022/12/20 09:24:02;;;;;;;;;;;10.70;99.90;;;;;;5098150;28;20003;-42
2022/12/20 09:26:27;;;;;;;;;;;10.60;99.90;;;;;;5113124;28;19947;-42
2022/12/20 09:28:53;;;;;;;;;;;10.70;99.90;;;;;;5110754;28;19912;-41
2022/12/20 09:31:20;;;;;;;;;;;10.60;99.90;;;;;;5105929;28;19977;-42
2022/12/20 09:33:45;;;;;;;;;;;10.60;99.90;;;;;;5111740;28;20504;-43
2022/12/20 09:36:12;;;;;;;;;;;10.70;99.90;;;;;;5112588;28;19999;-43
2022/12/20 09:38:37;;;;;;;;;;;10.60;99.90;;;;;;5113472;28;19912;-42
2022/12/20 09:41:05;;;;;;;;;;;10.60;99.90;;;;;;5113015;28;19915;-42
2022/12/20 09:43:31;;;;;;;;;;;10.70;99.90;;;;;;5108697;28;19998;-42
2022/12/20 09:45:58;;;;;;;;;;;10.70;99.90;;;;;;5092520;28;19968;-41
2022/12/20 09:48:26;;;;;;;;;;;10.60;99.90;;;;;;5092610;28;20373;-43
2022/12/20 09:51:06;;;;;;;;;;;10.70;99.90;;;;;;5091944;28;19917;-42
2022/12/20 09:53:31;;;;;;;;;;;10.60;99.90;;;;;;5095321;28;19916;-41
2022/12/20 09:56:04;;;;;;;;;;;10.70;99.90;;;;;;5096655;28;20050;-44
2022/12/20 09:58:36;;;;;;;;;;;10.70;99.90;;;;;;5095966;28;19912;-41
2022/12/20 10:01:13;;;;;;;;;;;10.70;99.90;;;;;;5096628;28;19961;-40
2022/12/20 10:03:39;;;;;;;;;;;10.70;99.90;;;;;;5096772;28;20285;-41
2022/12/20 10:06:09;;;;;;;;;;;10.70;99.90;;;;;;5096567;28;19909;-41
2022/12/20 10:08:35;;;;;;;;;;;10.60;99.90;;;;;;5096484;28;19961;-42
2022/12/20 10:11:19;;;;;;;;;;;10.70;99.90;;;;;;5095670;28;19912;-41
2022/12/20 10:14:03;;;;;;;;;;;10.60;99.90;;;;;;5102796;28;20061;-43
2022/12/20 10:16:29;;;;;;;;;;;10.60;99.90;;;;;;5116726;28;19914;-44
2022/12/20 10:19:18;;;;;;;;;;;10.60;99.90;;;;;;5106127;28;19912;-43
2022/12/20 10:21:51;;;;;;;;;;;10.50;99.90;;;;;;5107721;28;20255;-42
2022/12/20 10:24:16;;;;;;;;;;;10.50;99.90;;;;;;5105713;28;20482;-42
2022/12/20 10:26:42;;;;;;;;;;;10.50;99.90;;;;;;5109704;28;20006;-42
2022/12/20 10:29:08;;;;;;;;;;;10.50;99.90;;;;;;5108217;28;19935;-41
2022/12/20 10:31:34;;;;;;;;;;;10.50;99.90;;;;;;5110580;28;20293;-42
2022/12/20 10:34:00;;;;;;;;;;;10.40;99.90;;;;;;5106414;28;20378;-43
2022/12/20 10:36:27;;;;;;;;;;;10.40;99.90;;;;;;5109652;28;19912;-43
2022/12/20 10:39:13;;;;;;;;;;;10.40;99.90;;;;;;5112938;27;20004;-42
2022/12/20 10:41:41;;;;;;;;;;;10.40;99.90;;;;;;5111351;28;20336;-41
2022/12/20 10:44:27;;;;;;;;;;;10.40;99.90;;;;;;5113305;28;19911;-42
2022/12/20 10:46:59;;;;;;;;;;;10.40;99.90;;;;;;5113480;28;20362;-41
2022/12/20 10:49:31;;;;;;;;;;;10.40;99.90;;;;;;5112813;28;20053;-42
2022/12/20 10:52:01;;;;;;;;;;;10.40;99.90;;;;;;5104359;28;19912;-41
2022/12/20 10:54:34;;;;;;;;;;;10.40;99.90;;;;;;5094943;28;19939;-42
2022/12/20 10:57:01;;;;;;;;;;;10.40;99.90;;;;;;5095601;28;19908;-41
2022/12/20 10:59:27;;;;;;;;;;;10.40;99.90;;;;;;5095602;28;19928;-43
2022/12/20 11:01:52;;;;;;;;;;;10.50;99.90;;;;;;5094639;28;19916;-40
2022/12/20 11:04:21;;;;;;;;;;;10.50;99.90;;;;;;5095948;28;20357;-42
2022/12/20 11:06:47;;;;;;;;;;;10.50;99.90;;;;;;5094579;28;20344;-46
2022/12/20 11:09:18;;;;;;;;;;;10.50;99.90;;;;;;5095876;28;19915;-42
2022/12/20 11:11:58;;;;;;;;;;;10.50;99.90;;;;;;5095816;28;20045;-42
2022/12/20 11:14:24;;;;;;;;;;;10.50;99.90;;;;;;5095435;28;19908;-41
2022/12/20 11:16:50;;;;;;;;;;;10.60;99.90;;;;;;5096003;28;19914;-41
2022/12/20 11:19:34;;;;;;;;;;;10.60;99.90;;;;;;5095780;28;19908;-43
2022/12/20 11:22:06;;;;;;;;;;;10.60;99.90;;;;;;5104019;28;19927;-42
2022/12/20 11:24:42;;;;;;;;;;;10.60;99.90;;;;;;5115829;28;19908;-41
2022/12/20 11:27:14;;;;;;;;;;;10.60;99.90;;;;;;5116027;28;20324;-40
2022/12/20 11:30:03;;;;;;;;;;;10.60;99.90;;;;;;5095094;28;19915;-42
2022/12/20 11:32:31;;;;;;;;;;;10.60;99.90;;;;;;5087143;28;19924;-41
2022/12/20 11:35:16;;;;;;;;;;;10.60;99.90;;;;;;5095672;28;19913;-42
2022/12/20 11:37:59;;;;;;;;;;;10.60;99.90;;;;;;5107856;28;19952;-41
2022/12/20 11:40:30;;;;;;;;;;;10.60;99.90;;;;;;5103166;28;19914;-43
2022/12/20 11:43:14;;;;;;;;;;;10.60;99.90;;;;;;5100273;28;19943;-43
2022/12/20 11:45:40;;;;;;;;;;;10.60;99.90;;;;;;5115419;28;19935;-42
2022/12/20 11:48:06;;;;;;;;;;;10.60;99.90;;;;;;5114921;28;20378;-42
2022/12/20 11:50:48;;;;;;;;;;;10.70;99.90;;;;;;5114426;28;19939;-40
2022/12/20 11:53:33;;;;;;;;;;;10.70;99.90;;;;;;5105744;28;19908;-43
2022/12/20 11:56:00;;;;;;;;;;;10.70;99.90;;;;;;5110361;28;19922;-41
2022/12/20 11:58:26;;;;;;;;;;;10.70;99.90;;;;;;5108142;28;20316;-41
2022/12/20 12:00:57;;;;;;;;;;;10.70;99.90;;;;;;5102587;28;20418;-41
2022/12/20 12:03:26;;;;;;;;;;;10.70;99.90;;;;;;5110999;28;20018;-42
2022/12/20 12:05:53;;;;;;;;;;;10.70;99.90;;;;;;5111278;28;20436;-40
2022/12/20 12:08:24;;;;;;;;;;;10.70;99.90;;;;;;5108735;28;19945;-40
2022/12/20 12:10:55;;;;;;;;;;;10.80;99.90;;;;;;5100752;28;19912;-44
2022/12/20 12:13:24;;;;;;;;;;;10.70;99.90;;;;;;5104020;28;20835;-41
2022/12/20 12:15:54;;;;;;;;;;;10.70;99.90;;;;;;5112267;28;19912;-40
2022/12/20 12:18:22;;;;;;;;;;;10.70;99.90;;;;;;5112510;28;20134;-42
2022/12/20 12:20:50;;;;;;;;;;;10.70;99.90;;;;;;5113676;28;19912;-41
2022/12/20 12:23:34;;;;;;;;;;;10.70;99.90;;;;;;5113144;28;19920;-40
2022/12/20 12:26:03;;;;;;;;;;;10.70;99.90;;;;;;5106221;28;19989;-40
2022/12/20 12:28:29;;;;;;;;;;;10.60;99.90;;;;;;5107324;28;19958;-41
2022/12/20 12:30:58;;;;;;;;;;;10.70;99.90;;;;;;5093760;28;20365;-48
2022/12/20 12:33:34;;;;;;;;;;;10.60;99.90;;;;;;5103992;28;20376;-41
2022/12/20 12:36:23;;;;;;;;;;;10.60;99.90;;;;;;5102133;28;20017;-40
2022/12/20 12:39:10;;;;;;;;;;;10.60;99.90;;;;;;5114234;28;20418;-42
2022/12/20 12:41:45;;;;;;;;;;;10.60;99.90;;;;;;5099421;28;19962;-40
2022/12/20 12:44:20;;;;;;;;;;;10.60;99.90;;;;;;5101019;28;19968;-42
2022/12/20 12:46:50;;;;;;;;;;;10.60;99.90;;;;;;5098490;28;19958;-41
2022/12/20 12:49:18;;;;;;;;;;;10.60;99.90;;;;;;5105306;28;20010;-43
2022/12/20 12:51:55;;;;;;;;;;;10.70;99.90;;;;;;5113399;28;19912;-42
2022/12/20 12:54:23;;;;;;;;;;;10.70;99.90;;;;;;5110435;28;19912;-41
2022/12/20 12:56:49;;;;;;;;;;;10.70;99.90;;;;;;5111314;28;19919;-40
2022/12/20 12:59:38;;;;;;;;;;;10.70;99.90;;;;;;5109691;28;19915;-46
2022/12/20 13:02:13;;;;;;;;;;;10.70;99.90;;;;;;5101971;28;20278;-41
2022/12/20 13:04:52;;;;;;;;;;;10.70;99.90;;;;;;5110469;28;20002;-41
2022/12/20 13:07:26;;;;;;;;;;;10.60;99.90;;;;;;5109254;28;19908;-40
2022/12/20 13:09:52;;;;;;;;;;;10.70;99.90;;;;;;5110445;28;19912;-43
2022/12/20 13:12:36;;;;;;;;;;;10.70;99.90;;;;;;5110753;28;19908;-41
2022/12/20 13:15:21;;;;;;;;;;;10.60;99.90;;;;;;5106706;28;19919;-42
2022/12/20 13:17:48;;;;;;;;;;;10.60;99.90;;;;;;5092696;28;20309;-41
2022/12/20 13:20:18;;;;;;;;;;;10.70;99.90;;;;;;5091989;28;19919;-42
2022/12/20 13:23:07;;;;;;;;;;;10.70;99.90;;;;;;5099798;28;20015;-42
2022/12/20 13:25:40;;;;;;;;;;;10.60;99.90;;;;;;5091547;28;19962;-42
2022/12/20 13:28:11;;;;;;;;;;;10.60;99.90;;;;;;5110666;28;19915;-43
2022/12/20 13:30:38;;;;;;;;;;;10.60;99.90;;;;;;5094505;28;20541;-41
2022/12/20 13:33:40;;;;;;;;;;;10.60;99.90;;;;;;5101129;28;19951;-41
2022/12/20 13:36:08;;;;;;;;;;;10.60;99.90;;;;;;5050222;28;20010;-39
2022/12/20 13:38:47;;;;;;;;;;;10.60;99.90;;;;;;5100776;28;19912;-43
2022/12/20 13:41:21;;;;;;;;;;;10.70;99.90;;;;;;5111136;28;19908;-40
2022/12/20 13:43:48;;;;;;;;;;;10.70;99.90;;;;;;5111833;28;19999;-41
2022/12/20 13:46:20;;;;;;;;;;;10.60;99.90;;;;;;5099623;28;19919;-40
2022/12/20 13:48:45;;;;;;;;;;;10.60;99.90;;;;;;5107850;28;19912;-40
2022/12/20 13:51:21;;;;;;;;;;;10.60;99.90;;;;;;5110496;28;19908;-42
2022/12/20 13:53:54;;;;;;;;;;;10.60;99.90;;;;;;5096251;28;19912;-42
2022/12/20 13:56:25;;;;;;;;;;;10.60;99.90;;;;;;5091588;28;20008;-41
2022/12/20 13:58:52;;;;;;;;;;;10.60;99.90;;;;;;5092748;28;19944;-41
2022/12/20 14:01:20;;;;;;;;;;;10.60;99.90;;;;;;5092171;28;20377;-41
2022/12/20 14:03:46;;;;;;;;;;;10.60;99.90;;;;;;5102485;28;19908;-41
2022/12/20 14:06:13;;;;;;;;;;;10.60;99.90;;;;;;5107236;28;19908;-46
2022/12/20 14:08:43;;;;;;;;;;;10.60;99.90;;;;;;5092572;28;20320;-44
2022/12/20 14:11:12;;;;;;;;;;;10.60;99.90;;;;;;5091693;28;19959;-43
2022/12/20 14:13:38;;;;;;;;;;;10.70;99.90;;;;;;5091503;28;19928;-42
2022/12/20 14:16:10;;;;;;;;;;;10.70;99.90;;;;;;5090987;28;19908;-41
2022/12/20 14:18:35;;;;;;;;;;;10.70;99.90;;;;;;5091963;28;19908;-39
2022/12/20 14:21:03;;;;;;;;;;;10.70;99.90;;;;;;5093405;28;20296;-42
2022/12/20 14:23:50;;;;;;;;;;;10.70;99.90;;;;;;5091814;28;19962;-41
2022/12/20 14:26:17;;;;;;;;;;;10.70;99.90;;;;;;5092235;28;19908;-40
2022/12/20 14:28:47;;;;;;;;;;;10.70;99.90;;;;;;5098947;28;19959;-40
2022/12/20 14:31:21;;;;;;;;;;;10.70;99.90;;;;;;5111526;28;19920;-40
2022/12/20 14:33:47;;;;;;;;;;;10.70;99.90;;;;;;5094563;28;19919;-41
2022/12/20 14:36:15;;;;;;;;;;;10.70;99.90;;;;;;5091629;28;20266;-40
2022/12/20 14:38:58;;;;;;;;;;;10.70;99.90;;;;;;5096283;28;19916;-41